Time;durP1;ratioP1;P1;durP2;ratioP2;P2;SDS_P1;SDS_P2;PMS_P1;PMS_P2;Temp;Humidity;BMP_temperature;BMP_pressure;BME280_temperature;BME280_humidity;BME280_pressure;Samples;Min_cycle;Max_cycle;Signal;HPM_P1;HPM_P2
2022/05/26 00:01:22;;;;;;;1.48;1.33;;;14.20;99.90;;;;;;4916465;29;20214;-88
2022/05/26 00:03:52;;;;;;;0.93;0.88;;;14.20;99.90;;;;;;4916667;29;20246;-88
2022/05/26 00:06:23;;;;;;;1.33;0.82;;;14.20;99.90;;;;;;4916238;29;20206;-88
2022/05/26 00:08:52;;;;;;;1.08;0.90;;;14.30;99.90;;;;;;4916212;29;20361;-88
2022/05/26 00:11:23;;;;;;;1.60;1.27;;;14.30;99.90;;;;;;4915615;29;20305;-88
2022/05/26 00:13:53;;;;;;;1.13;1.13;;;14.30;99.90;;;;;;4916340;29;20234;-88
2022/05/26 00:16:21;;;;;;;1.15;1.10;;;14.20;99.90;;;;;;4916001;29;20249;-89
2022/05/26 00:18:50;;;;;;;1.58;1.48;;;14.30;99.90;;;;;;4915828;29;20216;-88
2022/05/26 00:21:18;;;;;;;1.23;1.20;;;14.20;99.90;;;;;;4915975;29;20214;-90
2022/05/26 00:23:47;;;;;;;1.13;1.13;;;14.20;99.90;;;;;;4915824;29;20234;-90
2022/05/26 00:26:15;;;;;;;1.20;1.10;;;14.30;99.90;;;;;;4916256;29;20241;-90
2022/05/26 00:28:43;;;;;;;1.30;1.20;;;14.30;99.90;;;;;;4916183;29;20202;-88
2022/05/26 00:31:13;;;;;;;1.00;1.00;;;14.30;99.90;;;;;;4916063;29;20286;-87
2022/05/26 00:33:42;;;;;;;0.88;0.88;;;14.30;99.90;;;;;;4917624;29;20230;-90
2022/05/26 00:36:14;;;;;;;1.15;1.15;;;14.40;99.90;;;;;;4918249;29;20294;-88
2022/05/26 00:38:43;;;;;;;1.25;1.20;;;14.40;99.90;;;;;;4918083;29;20206;-88
2022/05/26 00:41:14;;;;;;;0.80;0.80;;;14.40;99.90;;;;;;4917910;29;20207;-88
2022/05/26 00:43:43;;;;;;;1.00;1.00;;;14.40;99.90;;;;;;4917895;29;20314;-90
2022/05/26 00:46:20;;;;;;;0.95;0.95;;;14.40;99.90;;;;;;4917811;29;20297;-90
2022/05/26 00:48:52;;;;;;;1.65;1.40;;;14.40;99.90;;;;;;4917652;29;20217;-90
2022/05/26 00:51:24;;;;;;;0.70;0.70;;;14.40;99.90;;;;;;4917658;29;20301;-88
2022/05/26 00:53:55;;;;;;;0.95;0.95;;;14.40;99.90;;;;;;4917825;29;20314;-88
2022/05/26 00:56:32;;;;;;;1.02;1.02;;;14.30;99.90;;;;;;4917733;29;20235;-88
2022/05/26 00:59:07;;;;;;;1.10;1.10;;;14.30;99.90;;;;;;4917831;29;20242;-89
2022/05/26 01:01:37;;;;;;;1.13;1.02;;;14.40;99.90;;;;;;4917646;29;20265;-90
2022/05/26 01:04:10;;;;;;;0.90;0.90;;;14.40;99.90;;;;;;4917393;29;20221;-90
2022/05/26 01:06:45;;;;;;;1.20;1.20;;;14.50;99.90;;;;;;4917366;29;20298;-88
2022/05/26 01:09:14;;;;;;;0.85;0.85;;;14.50;99.90;;;;;;4917745;29;20267;-89
2022/05/26 01:11:44;;;;;;;0.85;0.85;;;14.50;99.90;;;;;;4917123;29;20297;-88
2022/05/26 01:14:18;;;;;;;1.25;1.15;;;14.50;99.90;;;;;;4917095;29;20309;-88
2022/05/26 01:17:01;;;;;;;1.48;1.13;;;14.50;99.90;;;;;;4917093;29;20250;-88
2022/05/26 01:20:06;;;;;;;1.65;1.55;;;14.50;99.90;;;;;;4917233;29;20206;-88
2022/05/26 01:22:56;;;;;;;1.17;1.15;;;14.40;99.90;;;;;;4917212;29;20290;-88
2022/05/26 01:25:48;;;;;;;1.10;1.10;;;14.50;99.90;;;;;;4916946;29;20210;-88
2022/05/26 01:28:31;;;;;;;1.08;1.08;;;14.40;99.90;;;;;;4917289;29;20214;-88
2022/05/26 01:31:21;;;;;;;1.35;1.33;;;14.40;99.90;;;;;;4916525;29;20226;-88
2022/05/26 01:33:55;;;;;;;1.42;1.35;;;14.40;99.90;;;;;;4917142;29;20318;-88
2022/05/26 01:36:35;;;;;;;0.90;0.90;;;14.50;99.90;;;;;;4916759;29;20237;-89
2022/05/26 01:39:14;;;;;;;1.55;1.35;;;14.50;99.90;;;;;;4917116;29;20206;-90
2022/05/26 01:41:54;;;;;;;1.23;1.13;;;14.40;99.90;;;;;;4916778;29;20222;-90
2022/05/26 01:44:32;;;;;;;0.95;0.95;;;14.40;99.90;;;;;;4917126;29;20294;-90
2022/05/26 01:47:09;;;;;;;1.40;1.20;;;14.50;99.90;;;;;;4916579;29;20233;-89
2022/05/26 01:49:42;;;;;;;1.30;1.20;;;14.40;99.90;;;;;;4916620;29;20368;-89
2022/05/26 01:52:16;;;;;;;0.80;0.80;;;14.50;99.90;;;;;;4916192;29;20226;-90
2022/05/26 01:54:52;;;;;;;1.15;1.08;;;14.50;99.90;;;;;;4916918;29;20309;-89
2022/05/26 01:57:28;;;;;;;1.10;1.10;;;14.50;99.90;;;;;;4916951;29;20218;-90
2022/05/26 02:00:02;;;;;;;1.52;1.00;;;14.50;99.90;;;;;;4916578;29;20297;-90
2022/05/26 02:02:40;;;;;;;3.95;1.33;;;14.50;99.90;;;;;;4917059;29;20214;-90
2022/05/26 02:05:13;;;;;;;0.80;0.80;;;14.50;99.90;;;;;;4916750;29;20229;-88
2022/05/26 02:07:47;;;;;;;1.00;0.90;;;14.50;99.90;;;;;;4916286;29;20203;-88
2022/05/26 02:10:22;;;;;;;0.90;0.90;;;14.60;99.90;;;;;;4916013;29;20250;-87
2022/05/26 02:12:55;;;;;;;0.82;0.82;;;14.60;99.90;;;;;;4916546;29;20230;-88
2022/05/26 02:15:28;;;;;;;0.93;0.90;;;14.60;99.90;;;;;;4916549;29;20257;-88
2022/05/26 02:18:03;;;;;;;0.77;0.77;;;14.50;99.90;;;;;;4916529;29;20313;-88
2022/05/26 02:20:39;;;;;;;0.80;0.80;;;14.60;99.90;;;;;;4916100;29;20301;-88
2022/05/26 02:23:13;;;;;;;0.77;0.77;;;14.60;99.90;;;;;;4916322;29;20230;-87
2022/05/26 02:25:41;;;;;;;0.80;0.80;;;14.60;99.90;;;;;;4916272;29;20206;-89
2022/05/26 02:28:11;;;;;;;0.90;0.90;;;14.60;99.90;;;;;;4916702;29;20206;-87
2022/05/26 02:30:41;;;;;;;1.17;1.17;;;14.60;99.90;;;;;;4916320;29;20313;-87
2022/05/26 02:33:14;;;;;;;0.82;0.82;;;14.50;99.90;;;;;;4916369;29;20313;-88
2022/05/26 02:35:45;;;;;;;0.90;0.90;;;14.60;99.90;;;;;;4916227;29;20261;-88
2022/05/26 02:38:16;;;;;;;1.02;1.02;;;14.50;99.90;;;;;;4916059;29;20294;-89
2022/05/26 02:40:46;;;;;;;1.30;1.20;;;14.60;99.90;;;;;;4916479;29;20230;-88
2022/05/26 02:43:17;;;;;;;1.40;1.00;;;14.60;99.90;;;;;;4919066;29;20250;-88
2022/05/26 02:45:56;;;;;;;0.82;0.82;;;14.60;99.90;;;;;;4920135;29;20282;-88
2022/05/26 02:48:44;;;;;;;0.80;0.80;;;14.60;99.90;;;;;;4919757;29;20233;-88
2022/05/26 02:51:22;;;;;;;1.30;1.13;;;14.70;99.90;;;;;;4919572;29;20264;-88
2022/05/26 02:53:57;;;;;;;1.10;1.10;;;14.70;99.90;;;;;;4919745;29;20289;-88
2022/05/26 02:56:37;;;;;;;0.95;0.95;;;14.70;99.90;;;;;;4920075;29;20297;-88
2022/05/26 02:59:14;;;;;;;1.15;1.05;;;14.70;99.90;;;;;;4919388;29;20245;-88
2022/05/26 03:01:53;;;;;;;0.90;0.90;;;14.70;99.90;;;;;;4919319;29;20293;-88
2022/05/26 03:04:27;;;;;;;1.20;1.20;;;14.70;99.90;;;;;;4919326;29;20230;-88
2022/05/26 03:07:00;;;;;;;1.00;1.00;;;14.70;99.90;;;;;;4919309;29;20270;-88
2022/05/26 03:09:29;;;;;;;1.00;1.00;;;14.70;99.90;;;;;;4919591;29;20214;-88
2022/05/26 03:11:59;;;;;;;1.00;1.00;;;14.80;99.90;;;;;;4919308;29;20250;-88
2022/05/26 03:14:27;;;;;;;1.35;1.25;;;14.80;99.90;;;;;;4919339;29;20265;-88
2022/05/26 03:16:56;;;;;;;2.05;1.13;;;14.70;99.90;;;;;;4919201;29;20253;-89
2022/05/26 03:19:26;;;;;;;1.33;1.27;;;14.80;99.90;;;;;;4919575;29;20282;-89
2022/05/26 03:21:54;;;;;;;1.17;1.08;;;14.80;99.90;;;;;;4918910;29;20234;-89
2022/05/26 03:24:22;;;;;;;1.52;1.40;;;14.90;99.90;;;;;;4919152;29;20283;-89
2022/05/26 03:26:51;;;;;;;1.05;1.05;;;14.90;99.90;;;;;;4919337;29;20210;-89
2022/05/26 03:29:19;;;;;;;0.85;0.85;;;14.90;99.90;;;;;;4918789;29;20218;-89
2022/05/26 03:31:47;;;;;;;0.77;0.77;;;14.90;99.90;;;;;;4918619;29;20387;-89
2022/05/26 03:42:34;;;;;;;0.80;0.80;;;15.00;99.90;;;;;;4919046;29;20286;-88
2022/05/26 03:45:05;;;;;;;0.68;0.68;;;15.00;99.90;;;;;;4918962;29;20234;-88
2022/05/26 03:47:33;;;;;;;1.25;1.17;;;15.00;99.90;;;;;;4918475;29;20270;-88
2022/05/26 03:50:01;;;;;;;0.77;0.77;;;15.00;99.90;;;;;;4919193;29;20206;-89
2022/05/26 03:52:31;;;;;;;3.45;1.45;;;15.00;99.90;;;;;;4918248;29;20249;-88
2022/05/26 03:54:59;;;;;;;0.60;0.60;;;15.00;99.90;;;;;;4917274;29;20290;-88
2022/05/26 03:57:30;;;;;;;0.70;0.70;;;15.00;99.90;;;;;;4918734;29;20206;-88
2022/05/26 03:59:59;;;;;;;1.05;1.05;;;15.00;99.90;;;;;;4918667;29;20234;-88
2022/05/26 04:02:27;;;;;;;0.73;0.73;;;15.10;99.90;;;;;;4918205;29;20226;-89
2022/05/26 04:04:56;;;;;;;1.35;1.13;;;15.10;99.90;;;;;;4918387;29;20261;-88
2022/05/26 04:07:24;;;;;;;2.17;0.93;;;15.10;99.90;;;;;;4918424;29;20214;-92
2022/05/26 04:09:54;;;;;;;0.90;0.90;;;15.20;99.90;;;;;;4919608;29;20215;-87
2022/05/26 04:12:22;;;;;;;0.65;0.65;;;15.20;99.90;;;;;;4915821;29;20235;-88
2022/05/26 04:14:51;;;;;;;0.73;0.73;;;15.20;99.90;;;;;;4915227;29;20222;-87
2022/05/26 04:17:19;;;;;;;1.10;0.80;;;15.20;99.90;;;;;;4915094;29;20309;-86
2022/05/26 04:19:47;;;;;;;0.50;0.50;;;15.20;99.90;;;;;;4916180;29;20301;-86
2022/05/26 04:22:17;;;;;;;0.98;0.98;;;15.20;99.90;;;;;;4916367;29;20207;-86
2022/05/26 04:24:48;;;;;;;0.80;0.80;;;15.20;99.90;;;;;;4916749;29;20230;-86
2022/05/26 04:27:20;;;;;;;0.90;0.90;;;15.30;99.90;;;;;;4916096;29;20288;-86
2022/05/26 04:29:49;;;;;;;1.02;1.02;;;15.30;99.90;;;;;;4925057;29;20298;-87
2022/05/26 04:32:18;;;;;;;1.02;0.90;;;15.30;99.90;;;;;;4933789;29;20222;-86
2022/05/26 04:34:48;;;;;;;2.10;0.73;;;15.40;99.90;;;;;;4918367;29;20257;-86
2022/05/26 04:37:17;;;;;;;0.80;0.73;;;15.40;99.90;;;;;;4918871;29;20234;-86
2022/05/26 04:39:46;;;;;;;0.75;0.75;;;15.40;99.90;;;;;;4918318;29;20206;-86
2022/05/26 04:42:15;;;;;;;1.70;0.90;;;15.50;99.90;;;;;;4918673;29;20226;-86
2022/05/26 04:44:45;;;;;;;0.70;0.70;;;15.50;99.90;;;;;;4912936;29;20254;-86
2022/05/26 04:47:14;;;;;;;0.93;0.93;;;15.50;99.90;;;;;;4899780;29;20211;-86
2022/05/26 04:49:43;;;;;;;0.90;0.90;;;15.60;99.90;;;;;;4899415;29;20207;-86
2022/05/26 04:52:16;;;;;;;0.88;0.88;;;15.60;99.90;;;;;;4898859;29;20318;-86
2022/05/26 04:54:46;;;;;;;0.75;0.75;;;15.70;99.90;;;;;;4899131;29;20235;-86
2022/05/26 04:57:16;;;;;;;0.60;0.60;;;15.70;99.90;;;;;;4899185;29;20237;-86
2022/05/26 04:59:46;;;;;;;0.80;0.80;;;15.80;99.90;;;;;;4899322;29;20238;-87
2022/05/26 05:02:17;;;;;;;0.63;0.63;;;15.80;99.90;;;;;;4899183;29;20215;-86
2022/05/26 05:04:48;;;;;;;2.60;1.08;;;15.80;99.90;;;;;;4898586;29;20231;-86
2022/05/26 05:07:17;;;;;;;0.60;0.60;;;15.90;99.90;;;;;;4899147;29;20236;-85
2022/05/26 05:09:47;;;;;;;0.50;0.50;;;16.00;99.90;;;;;;4899357;29;20214;-86
2022/05/26 05:12:19;;;;;;;0.80;0.80;;;16.00;99.90;;;;;;4903402;29;20215;-86
2022/05/26 05:14:50;;;;;;;0.65;0.65;;;16.10;99.90;;;;;;4917260;29;20341;-87
2022/05/26 05:17:20;;;;;;;2.47;0.82;;;16.10;99.90;;;;;;4916824;29;20210;-87
2022/05/26 05:19:50;;;;;;;0.93;0.65;;;16.20;99.90;;;;;;4914746;29;20203;-86
2022/05/26 05:22:25;;;;;;;1.15;1.02;;;16.20;99.90;;;;;;4916608;29;20210;-87
2022/05/26 05:24:57;;;;;;;0.63;0.63;;;16.20;99.90;;;;;;4909340;29;20309;-85
2022/05/26 05:27:32;;;;;;;0.77;0.77;;;16.30;99.90;;;;;;4902618;29;20229;-86
2022/05/26 05:30:06;;;;;;;0.82;0.82;;;16.40;99.90;;;;;;4923841;29;20297;-87
2022/05/26 05:32:40;;;;;;;0.63;0.63;;;16.50;99.90;;;;;;4927021;29;20218;-87
2022/05/26 05:35:14;;;;;;;0.75;0.75;;;16.50;99.90;;;;;;4911271;29;20238;-86
2022/05/26 05:37:43;;;;;;;0.63;0.63;;;16.60;99.90;;;;;;4914957;29;20289;-87
2022/05/26 05:40:12;;;;;;;1.00;0.85;;;16.70;99.90;;;;;;4913576;29;20294;-86
2022/05/26 05:42:41;;;;;;;1.42;0.60;;;16.80;99.90;;;;;;4898277;29;20302;-87
2022/05/26 05:45:12;;;;;;;0.82;0.82;;;16.90;99.90;;;;;;4898555;29;20215;-87
2022/05/26 05:47:40;;;;;;;0.75;0.75;;;17.00;99.90;;;;;;4898333;29;20215;-86
2022/05/26 05:50:09;;;;;;;1.13;0.70;;;17.10;99.90;;;;;;4915662;29;20210;-87
2022/05/26 05:52:38;;;;;;;0.80;0.77;;;17.10;99.90;;;;;;4911163;29;20253;-87
2022/05/26 05:55:07;;;;;;;0.80;0.63;;;17.30;99.90;;;;;;4901763;29;20247;-87
2022/05/26 05:57:37;;;;;;;0.80;0.80;;;17.40;99.90;;;;;;4898633;29;20207;-87
2022/05/26 06:00:07;;;;;;;0.52;0.45;;;17.50;99.90;;;;;;4899386;29;20239;-87
2022/05/26 06:02:37;;;;;;;0.90;0.90;;;17.60;99.90;;;;;;4899468;29;20273;-87
2022/05/26 06:05:07;;;;;;;0.50;0.50;;;17.70;99.90;;;;;;4898166;29;20235;-86
2022/05/26 06:07:38;;;;;;;0.57;0.57;;;17.80;99.90;;;;;;4898563;29;20218;-86
2022/05/26 06:10:07;;;;;;;0.77;0.63;;;17.90;99.90;;;;;;4910971;29;20202;-86
2022/05/26 06:12:37;;;;;;;1.70;0.50;;;17.90;99.90;;;;;;4916429;29;20294;-86
2022/05/26 06:15:07;;;;;;;0.68;0.68;;;18.00;99.90;;;;;;4916203;29;20246;-86
2022/05/26 06:17:37;;;;;;;0.47;0.47;;;18.10;99.90;;;;;;4918443;29;20289;-85
2022/05/26 06:20:10;;;;;;;0.55;0.55;;;18.10;99.90;;;;;;4920301;29;20273;-86
2022/05/26 06:22:41;;;;;;;0.68;0.68;;;18.20;99.90;;;;;;4920211;29;20238;-86
2022/05/26 06:25:10;;;;;;;0.77;0.77;;;18.30;99.90;;;;;;4920367;29;20289;-85
2022/05/26 06:30:26;;;;;;;1.00;0.57;;;18.30;99.90;;;;;;4919878;29;20269;-85
2022/05/26 06:38:32;;;;;;;0.40;0.40;;;18.50;99.90;;;;;;4919902;29;20302;-85
2022/05/26 06:42:05;;;;;;;0.70;0.70;;;18.60;99.90;;;;;;4920399;29;20289;-85
2022/05/26 06:43:51;;;;;;;0.47;0.47;;;18.70;99.90;;;;;;4920190;29;20238;-85
2022/05/26 06:46:20;;;;;;;0.82;0.82;;;18.80;99.90;;;;;;4920110;29;20278;-86
2022/05/26 06:48:50;;;;;;;0.45;0.45;;;18.90;99.90;;;;;;4919615;29;20262;-85
2022/05/26 06:51:18;;;;;;;0.60;0.60;;;19.10;99.90;;;;;;4920094;29;20236;-86
2022/05/26 06:53:47;;;;;;;1.17;0.60;;;19.20;99.90;;;;;;4919428;29;20250;-85
2022/05/26 06:56:16;;;;;;;0.77;0.77;;;19.30;99.90;;;;;;4919913;29;20249;-85
2022/05/26 06:58:44;;;;;;;0.60;0.60;;;19.50;99.90;;;;;;4919624;29;20238;-85
2022/05/26 07:01:14;;;;;;;0.80;0.80;;;19.60;99.90;;;;;;4919595;29;20237;-86
2022/05/26 07:03:43;;;;;;;0.90;0.90;;;19.80;99.90;;;;;;4919734;29;20233;-86
2022/05/26 07:06:16;;;;;;;0.65;0.65;;;20.00;99.90;;;;;;4919784;29;20210;-85
2022/05/26 07:08:45;;;;;;;0.93;0.93;;;20.10;99.90;;;;;;4919620;29;20207;-86
2022/05/26 07:11:15;;;;;;;0.63;0.63;;;20.30;99.90;;;;;;4919376;29;20215;-85
2022/05/26 07:13:43;;;;;;;4.40;1.27;;;20.60;99.90;;;;;;4919085;29;20294;-85
2022/05/26 07:16:12;;;;;;;0.80;0.80;;;21.00;99.90;;;;;;4919331;29;20222;-85
2022/05/26 07:18:41;;;;;;;0.70;0.70;;;21.20;99.90;;;;;;4919267;29;20221;-85
2022/05/26 07:21:11;;;;;;;0.70;0.70;;;21.70;99.90;;;;;;4918821;29;20245;-85
2022/05/26 07:23:42;;;;;;;3.30;0.95;;;22.20;99.90;;;;;;4919055;29;20230;-86
2022/05/26 07:26:13;;;;;;;0.85;0.75;;;23.00;99.90;;;;;;4919724;29;20267;-86
2022/05/26 07:28:42;;;;;;;0.80;0.80;;;23.20;99.90;;;;;;4919211;29;20226;-86
2022/05/26 07:31:17;;;;;;;0.68;0.68;;;23.80;99.90;;;;;;4918908;29;20325;-86
2022/05/26 07:33:47;;;;;;;0.80;0.80;;;24.10;99.90;;;;;;4919216;29;20237;-86
2022/05/26 07:41:54;;;;;;;0.80;0.80;;;25.10;99.90;;;;;;4918833;29;20210;-86
2022/05/26 07:44:22;;;;;;;0.68;0.68;;;26.40;97.80;;;;;;4918960;29;20227;-86
2022/05/26 07:46:51;;;;;;;1.02;0.90;;;27.40;95.40;;;;;;4918776;29;20206;-85
2022/05/26 07:49:20;;;;;;;1.10;0.88;;;27.40;93.60;;;;;;4918291;29;20214;-86
2022/05/26 07:51:48;;;;;;;0.60;0.60;;;27.50;92.40;;;;;;4918739;29;20242;-86
2022/05/26 07:54:18;;;;;;;0.80;0.80;;;27.40;91.40;;;;;;4918403;29;20322;-86
2022/05/26 07:56:46;;;;;;;0.82;0.82;;;27.70;91.20;;;;;;4918894;29;20206;-86
2022/05/26 07:59:15;;;;;;;2.78;1.23;;;28.40;88.60;;;;;;4918461;29;20289;-86
2022/05/26 08:01:43;;;;;;;0.63;0.63;;;29.50;85.60;;;;;;4918353;29;20310;-86
2022/05/26 08:04:11;;;;;;;0.55;0.55;;;29.40;82.60;;;;;;4918259;29;20229;-86
2022/05/26 08:06:40;;;;;;;0.90;0.90;;;29.20;80.20;;;;;;4918377;29;20297;-86
2022/05/26 08:09:15;;;;;;;0.63;0.63;;;28.90;79.80;;;;;;4918818;29;20206;-86
2022/05/26 08:11:45;;;;;;;0.90;0.90;;;28.30;80.10;;;;;;4918186;29;20207;-86
2022/05/26 08:14:15;;;;;;;0.40;0.40;;;27.50;82.30;;;;;;4918346;29;20328;-86
2022/05/26 08:16:43;;;;;;;0.45;0.45;;;26.50;80.90;;;;;;4918313;29;20214;-86
2022/05/26 08:19:11;;;;;;;1.35;0.80;;;26.00;81.80;;;;;;4918415;29;20207;-86
2022/05/26 08:21:40;;;;;;;0.95;0.80;;;25.10;82.30;;;;;;4917767;29;20219;-86
2022/05/26 08:24:09;;;;;;;0.55;0.55;;;24.30;84.80;;;;;;4918138;29;20314;-86
2022/05/26 08:26:38;;;;;;;0.60;0.60;;;23.60;86.30;;;;;;4918225;29;20297;-86
2022/05/26 08:29:07;;;;;;;0.80;0.80;;;23.70;87.50;;;;;;4918370;29;20238;-86
2022/05/26 08:31:35;;;;;;;0.52;0.52;;;24.00;87.60;;;;;;4917839;29;20309;-86
2022/05/26 08:34:04;;;;;;;0.50;0.50;;;24.30;87.20;;;;;;4917908;29;20242;-86
2022/05/26 08:36:35;;;;;;;0.60;0.60;;;24.60;87.20;;;;;;4917817;29;20214;-86
2022/05/26 08:39:05;;;;;;;0.60;0.60;;;25.60;86.70;;;;;;4918116;29;20210;-86
2022/05/26 08:41:36;;;;;;;0.63;0.63;;;25.80;84.60;;;;;;4917426;29;20245;-86
2022/05/26 08:44:11;;;;;;;4.55;0.57;;;25.30;84.10;;;;;;4918026;29;20227;-86
2022/05/26 08:46:45;;;;;;;0.40;0.40;;;25.30;85.90;;;;;;4917972;29;20273;-86
2022/05/26 08:49:21;;;;;;;0.93;0.90;;;25.20;85.00;;;;;;4917629;29;20236;-86
2022/05/26 08:51:52;;;;;;;0.88;0.88;;;26.00;84.40;;;;;;4917589;29;20302;-86
2022/05/26 08:54:26;;;;;;;0.60;0.60;;;26.80;81.70;;;;;;4917321;29;20234;-86
2022/05/26 08:56:57;;;;;;;0.90;0.90;;;27.30;83.80;;;;;;4917726;29;20214;-86
2022/05/26 08:59:33;;;;;;;0.80;0.80;;;28.30;79.40;;;;;;4917688;29;20219;-86
2022/05/26 09:02:03;;;;;;;0.80;0.80;;;29.50;81.30;;;;;;4917451;29;20234;-86
2022/05/26 09:04:32;;;;;;;1.30;1.20;;;30.00;73.70;;;;;;4917695;29;20254;-86
2022/05/26 09:12:59;;;;;;;1.30;1.20;;;30.20;69.30;;;;;;4900760;29;20213;-86
2022/05/26 09:15:30;;;;;;;1.65;1.08;;;29.60;69.60;;;;;;4917036;29;20225;-86
2022/05/26 09:17:59;;;;;;;1.10;1.00;;;29.20;70.50;;;;;;4917297;29;20238;-86
2022/05/26 09:20:34;;;;;;;1.33;1.10;;;28.50;70.50;;;;;;4916575;29;20222;-86
2022/05/26 09:23:23;;;;;;;1.02;1.02;;;28.20;73.50;;;;;;4917195;29;20229;-86
2022/05/26 09:25:54;;;;;;;1.00;1.00;;;28.20;73.70;;;;;;4917065;29;20247;-86
2022/05/26 09:28:32;;;;;;;1.13;1.13;;;28.30;74.60;;;;;;4917357;29;20234;-86
2022/05/26 09:31:32;;;;;;;0.93;0.93;;;28.80;72.00;;;;;;4916940;29;20225;-85
2022/05/26 09:34:07;;;;;;;1.65;1.20;;;28.30;71.40;;;;;;4885001;29;20237;-87
2022/05/26 09:36:40;;;;;;;1.25;1.13;;;27.80;71.70;;;;;;4916995;29;20213;-86
2022/05/26 09:39:09;;;;;;;0.98;0.98;;;27.90;72.30;;;;;;4916756;29;20218;-86
2022/05/26 09:41:39;;;;;;;2.65;2.45;;;27.70;72.10;;;;;;4916870;29;20210;-86
2022/05/26 09:44:40;;;;;;;3.03;2.40;;;27.60;72.60;;;;;;4916866;29;20230;-86
2022/05/26 09:47:24;;;;;;;1.17;1.17;;;27.60;71.10;;;;;;4917164;29;20239;-86
2022/05/26 09:49:56;;;;;;;1.63;1.52;;;27.00;72.50;;;;;;4916777;29;20294;-86
2022/05/26 09:52:30;;;;;;;2.15;1.65;;;26.90;73.30;;;;;;4916511;29;20293;-86
2022/05/26 09:55:12;;;;;;;1.88;1.60;;;27.10;74.30;;;;;;4916462;29;20278;-86
2022/05/26 09:57:40;;;;;;;1.73;1.63;;;26.90;73.10;;;;;;4916647;29;20332;-86
2022/05/26 10:00:21;;;;;;;5.53;2.78;;;26.70;74.00;;;;;;4916729;29;20206;-87
2022/05/26 10:02:53;;;;;;;2.22;1.73;;;27.30;74.40;;;;;;4916457;29;20301;-86
2022/05/26 10:05:28;;;;;;;1.45;1.02;;;28.10;73.80;;;;;;4916684;29;20234;-86
2022/05/26 10:08:09;;;;;;;1.45;1.35;;;28.20;71.30;;;;;;4916678;29;20285;-86
2022/05/26 10:10:43;;;;;;;1.00;1.00;;;27.10;72.90;;;;;;4916570;29;20206;-86
2022/05/26 10:13:37;;;;;;;1.35;1.25;;;26.60;74.20;;;;;;4916505;29;20322;-86
2022/05/26 10:16:13;;;;;;;1.67;1.20;;;25.70;75.50;;;;;;4916046;29;20322;-86
2022/05/26 10:19:06;;;;;;;3.03;1.40;;;25.70;76.10;;;;;;4916599;29;20250;-87
2022/05/26 10:21:51;;;;;;;1.45;1.35;;;26.10;75.20;;;;;;4915932;29;20210;-86
2022/05/26 10:24:44;;;;;;;1.20;1.10;;;26.30;75.50;;;;;;4916449;29;20250;-86
2022/05/26 10:27:23;;;;;;;0.85;0.85;;;26.20;73.00;;;;;;4916615;29;20234;-86
2022/05/26 10:30:05;;;;;;;2.20;1.90;;;26.10;74.30;;;;;;4916373;29;20210;-87
2022/05/26 10:32:43;;;;;;;1.58;1.48;;;26.10;74.90;;;;;;4916296;29;20218;-87
2022/05/26 10:35:23;;;;;;;1.60;1.50;;;26.20;74.90;;;;;;4916403;29;20321;-87
2022/05/26 10:38:20;;;;;;;2.58;1.13;;;26.40;74.70;;;;;;4916319;29;20236;-86
2022/05/26 10:40:56;;;;;;;2.75;2.55;;;26.50;74.30;;;;;;4916318;29;20274;-86
2022/05/26 10:43:30;;;;;;;1.60;1.50;;;27.00;72.80;;;;;;4916335;29;20237;-86
2022/05/26 10:46:03;;;;;;;1.40;1.30;;;27.30;68.60;;;;;;4916347;29;20210;-86
2022/05/26 10:48:38;;;;;;;0.80;0.80;;;26.90;68.60;;;;;;4916621;29;20207;-86
2022/05/26 10:51:13;;;;;;;1.13;1.13;;;26.70;68.70;;;;;;4915658;29;20214;-86
2022/05/26 10:53:49;;;;;;;1.30;1.20;;;26.70;69.10;;;;;;4916036;29;20254;-86
2022/05/26 10:56:24;;;;;;;1.23;1.13;;;27.20;66.80;;;;;;4916091;29;20229;-86
2022/05/26 10:59:01;;;;;;;1.00;1.00;;;27.20;67.10;;;;;;4916489;29;20224;-86
2022/05/26 11:01:36;;;;;;;1.95;1.25;;;27.60;65.90;;;;;;4916409;29;20202;-86
2022/05/26 11:04:14;;;;;;;1.20;1.08;;;27.40;65.60;;;;;;4918085;29;20249;-87
2022/05/26 11:06:48;;;;;;;1.60;1.50;;;27.60;66.60;;;;;;4919631;29;20210;-88
2022/05/26 11:09:22;;;;;;;1.38;1.27;;;27.80;66.10;;;;;;4919493;29;20231;-86
2022/05/26 11:11:59;;;;;;;1.70;1.45;;;27.70;64.70;;;;;;4919423;29;20305;-86
2022/05/26 11:17:34;;;;;;;1.50;1.40;;;27.10;65.00;;;;;;4919490;29;20256;-86
2022/05/26 11:20:07;;;;;;;1.80;1.25;;;27.00;65.40;;;;;;4919196;29;20252;-86
2022/05/26 11:22:37;;;;;;;1.60;1.50;;;27.10;65.40;;;;;;4919458;29;20264;-86
2022/05/26 11:25:07;;;;;;;5.47;1.58;;;27.20;66.00;;;;;;4919433;29;20226;-86
2022/05/26 11:27:41;;;;;;;1.75;1.40;;;27.50;65.00;;;;;;4919464;29;20259;-86
2022/05/26 11:36:23;;;;;;;1.30;1.20;;;26.60;65.10;;;;;;4918895;29;20305;-86
2022/05/26 11:38:53;;;;;;;1.02;1.02;;;26.50;65.00;;;;;;4918993;29;20296;-86
2022/05/26 11:41:29;;;;;;;1.15;1.15;;;26.80;64.40;;;;;;4919132;29;20229;-86
2022/05/26 11:44:04;;;;;;;1.65;1.25;;;27.00;64.20;;;;;;4919421;29;20286;-86
2022/05/26 11:46:49;;;;;;;1.38;1.13;;;27.30;65.10;;;;;;4918854;29;20206;-86
2022/05/26 11:49:54;;;;;;;1.38;1.23;;;27.50;64.10;;;;;;4918506;29;20329;-86
2022/05/26 11:53:12;;;;;;;1.20;1.08;;;26.90;64.50;;;;;;4918755;29;20206;-86
2022/05/26 11:55:53;;;;;;;1.05;0.95;;;26.40;67.20;;;;;;4904179;29;20302;-86
2022/05/26 11:58:44;;;;;;;1.75;1.00;;;26.70;66.20;;;;;;4918745;29;20302;-86
2022/05/26 12:01:16;;;;;;;2.05;1.08;;;26.80;64.40;;;;;;4914914;29;20226;-86
2022/05/26 12:04:01;;;;;;;1.27;1.17;;;26.70;64.70;;;;;;4918668;29;20253;-86
2022/05/26 12:06:35;;;;;;;0.93;0.90;;;26.30;64.80;;;;;;4918879;29;20217;-86
2022/05/26 12:09:06;;;;;;;1.15;1.15;;;26.10;66.00;;;;;;4918713;29;20239;-86
2022/05/26 12:11:58;;;;;;;1.30;1.20;;;26.60;67.00;;;;;;4918376;29;20267;-87
2022/05/26 12:14:30;;;;;;;1.25;1.20;;;27.20;65.70;;;;;;4917733;29;20297;-87
2022/05/26 12:17:32;;;;;;;1.20;1.10;;;27.40;64.70;;;;;;4918014;29;20317;-86
2022/05/26 12:20:04;;;;;;;1.73;1.58;;;27.40;63.60;;;;;;4917973;29;20265;-86
2022/05/26 12:22:34;;;;;;;0.95;0.95;;;27.40;64.40;;;;;;4918250;29;20301;-86
2022/05/26 12:25:20;;;;;;;1.50;1.40;;;26.80;66.00;;;;;;4918178;29;20392;-85
2022/05/26 12:28:02;;;;;;;1.70;1.60;;;26.20;66.80;;;;;;4918360;29;20202;-86
2022/05/26 12:30:41;;;;;;;3.50;1.98;;;25.70;67.90;;;;;;4918026;29;20214;-86
2022/05/26 12:33:39;;;;;;;2.80;2.60;;;25.40;68.10;;;;;;4918333;29;20314;-86
2022/05/26 12:36:17;;;;;;;2.55;1.88;;;25.20;70.30;;;;;;4917710;29;20257;-86
2022/05/26 12:38:59;;;;;;;1.60;1.42;;;25.20;70.60;;;;;;4918437;29;20218;-86
2022/05/26 12:41:39;;;;;;;1.00;1.00;;;25.20;70.10;;;;;;4917993;29;20269;-85
2022/05/26 12:44:50;;;;;;;0.88;0.88;;;25.50;70.00;;;;;;4917477;29;20237;-85
2022/05/26 12:47:44;;;;;;;1.00;1.00;;;25.70;70.70;;;;;;4918286;29;20237;-86
2022/05/26 12:50:18;;;;;;;1.02;1.02;;;25.30;69.70;;;;;;4917457;29;20237;-86
2022/05/26 12:53:01;;;;;;;0.85;0.85;;;25.30;70.30;;;;;;4917704;29;20270;-86
2022/05/26 12:55:34;;;;;;;1.27;1.13;;;25.20;70.80;;;;;;4917559;29;20333;-86
2022/05/26 12:58:04;;;;;;;1.33;1.20;;;25.10;70.40;;;;;;4917720;29;20305;-85
2022/05/26 13:00:37;;;;;;;1.42;1.33;;;25.00;70.00;;;;;;4917632;29;20302;-86
2022/05/26 13:03:08;;;;;;;0.98;0.98;;;24.80;70.50;;;;;;4917369;29;20234;-86
2022/05/26 13:05:40;;;;;;;0.98;0.98;;;24.90;70.90;;;;;;4917418;29;20305;-86
2022/05/26 13:08:16;;;;;;;1.23;1.13;;;24.80;70.30;;;;;;4917607;29;20271;-87
2022/05/26 13:10:46;;;;;;;1.05;1.05;;;24.80;71.00;;;;;;4917304;29;20215;-86
2022/05/26 13:13:21;;;;;;;1.20;1.13;;;24.80;71.40;;;;;;4917788;29;20317;-85
2022/05/26 13:15:51;;;;;;;1.10;1.10;;;24.80;70.30;;;;;;4917114;29;20229;-85
2022/05/26 13:18:26;;;;;;;1.00;1.00;;;25.00;70.50;;;;;;4917276;29;20206;-85
2022/05/26 13:20:55;;;;;;;1.42;1.33;;;25.20;69.30;;;;;;4916618;29;20237;-85
2022/05/26 13:23:31;;;;;;;1.35;1.25;;;24.90;68.10;;;;;;4917073;29;20240;-85
2022/05/26 13:26:00;;;;;;;0.90;0.90;;;24.50;69.00;;;;;;4916940;29;20253;-85
2022/05/26 13:28:31;;;;;;;1.30;1.20;;;24.40;70.20;;;;;;4917057;29;20340;-86
2022/05/26 13:34:14;;;;;;;8.52;1.20;;;24.60;70.10;;;;;;4917156;29;20234;-85
2022/05/26 13:36:45;;;;;;;2.83;1.33;;;24.60;70.20;;;;;;4916791;29;20321;-85
2022/05/26 13:39:17;;;;;;;2.67;2.05;;;24.70;70.30;;;;;;4917005;29;20266;-85
2022/05/26 13:41:48;;;;;;;0.90;0.90;;;24.60;69.90;;;;;;4916742;29;20210;-85
2022/05/26 13:44:24;;;;;;;2.33;1.60;;;24.60;71.30;;;;;;4916742;29;20268;-85
2022/05/26 13:46:54;;;;;;;1.30;1.20;;;24.80;70.30;;;;;;4917272;29;20258;-85
2022/05/26 13:49:31;;;;;;;2.05;1.20;;;24.80;70.00;;;;;;4916871;29;20222;-85
2022/05/26 13:52:06;;;;;;;2.58;1.73;;;24.90;70.30;;;;;;4916847;29;20217;-85
2022/05/26 13:54:38;;;;;;;1.00;1.00;;;24.90;70.20;;;;;;4916692;29;20233;-85
2022/05/26 13:57:16;;;;;;;1.70;1.60;;;24.90;70.90;;;;;;4916451;29;20229;-86
2022/05/26 13:59:47;;;;;;;1.20;1.20;;;24.80;70.50;;;;;;4916718;29;20206;-85
2022/05/26 14:02:26;;;;;;;1.85;1.65;;;24.60;71.60;;;;;;4916657;29;20206;-86